Time;durP1;ratioP1;P1;durP2;ratioP2;P2;SDS_P1;SDS_P2;PMS_P1;PMS_P2;Temp;Humidity;BMP_temperature;BMP_pressure;BME280_temperature;BME280_humidity;BME280_pressure;Samples;Min_cycle;Max_cycle;Signal;HPM_P1;HPM_P2
2022/12/18 00:01:19;;;;;;;5.40;4.43;;;19.80;34.40;;;;;;5070914;28;20049;-71
2022/12/18 00:03:47;;;;;;;6.35;4.55;;;19.80;34.40;;;;;;5052760;28;20083;-71
2022/12/18 00:06:16;;;;;;;6.93;4.78;;;19.80;34.40;;;;;;5071121;28;20581;-71
2022/12/18 00:08:44;;;;;;;6.40;4.35;;;19.80;34.50;;;;;;5071271;28;20074;-71
2022/12/18 00:11:13;;;;;;;6.10;4.38;;;19.80;34.50;;;;;;5070063;28;20044;-71
2022/12/18 00:13:41;;;;;;;6.70;4.67;;;19.80;34.50;;;;;;5071441;28;20500;-71
2022/12/18 00:16:14;;;;;;;6.53;4.78;;;19.80;34.40;;;;;;5071298;28;20048;-72
2022/12/18 00:18:42;;;;;;;5.38;4.38;;;19.80;34.40;;;;;;5071078;28;20072;-71
2022/12/18 00:21:11;;;;;;;5.90;4.53;;;19.80;34.40;;;;;;5070801;28;20520;-71
2022/12/18 00:23:41;;;;;;;5.63;4.57;;;19.80;34.40;;;;;;5066824;28;20044;-71
2022/12/18 00:26:19;;;;;;;7.60;4.85;;;19.80;34.40;;;;;;5070673;28;20044;-71
2022/12/18 00:28:46;;;;;;;6.75;5.03;;;19.90;34.40;;;;;;5070520;28;20041;-71
2022/12/18 00:31:15;;;;;;;6.18;4.55;;;19.80;34.40;;;;;;5070173;28;20054;-71
2022/12/18 00:33:43;;;;;;;6.55;4.82;;;19.80;34.40;;;;;;5070239;28;20052;-71
2022/12/18 00:36:14;;;;;;;6.57;4.72;;;19.90;34.40;;;;;;5070705;28;20064;-72
2022/12/18 00:38:42;;;;;;;6.10;4.47;;;19.80;34.40;;;;;;5071032;28;20106;-71
2022/12/18 00:41:10;;;;;;;6.28;4.25;;;19.80;34.30;;;;;;5070088;28;20044;-73
2022/12/18 00:43:39;;;;;;;6.07;4.57;;;19.80;34.30;;;;;;5071000;28;20052;-71
2022/12/18 00:46:07;;;;;;;5.90;4.13;;;19.80;34.30;;;;;;5070234;28;20071;-71
2022/12/18 00:48:35;;;;;;;7.40;4.55;;;19.80;34.30;;;;;;5053186;28;20478;-71
2022/12/18 00:51:02;;;;;;;5.43;4.25;;;19.80;34.30;;;;;;5070122;28;20489;-71
2022/12/18 00:53:29;;;;;;;6.15;4.45;;;19.80;34.30;;;;;;5070248;28;20048;-71
2022/12/18 00:55:56;;;;;;;7.88;5.07;;;19.80;34.30;;;;;;5065916;28;20044;-71
2022/12/18 00:58:24;;;;;;;5.82;4.45;;;19.80;34.40;;;;;;5070309;28;20056;-71
2022/12/18 01:00:51;;;;;;;6.00;4.70;;;19.80;34.30;;;;;;5070618;28;20531;-71
2022/12/18 01:03:18;;;;;;;6.03;4.75;;;19.80;34.40;;;;;;5070185;28;20041;-72
2022/12/18 01:05:45;;;;;;;6.07;4.50;;;19.80;34.30;;;;;;5069258;28;20048;-71
2022/12/18 01:08:12;;;;;;;5.88;4.25;;;19.80;34.40;;;;;;5070217;28;20044;-71
2022/12/18 01:10:42;;;;;;;5.30;4.22;;;19.80;34.40;;;;;;5052299;28;20399;-71
2022/12/18 01:13:09;;;;;;;5.45;4.25;;;19.80;34.30;;;;;;5070527;28;20048;-71
2022/12/18 01:15:36;;;;;;;5.78;4.18;;;19.70;34.30;;;;;;5069413;28;20249;-72
2022/12/18 01:18:07;;;;;;;5.78;3.92;;;19.80;34.40;;;;;;5069645;28;20059;-71
2022/12/18 01:20:34;;;;;;;;;;;19.80;34.40;;;;;;5070707;28;20053;-71
2022/12/18 01:23:01;;;;;;;5.85;4.35;;;19.70;34.30;;;;;;5069578;28;19927;-71
2022/12/18 01:25:28;;;;;;;5.95;4.22;;;19.70;34.30;;;;;;5069598;28;20647;-72
2022/12/18 01:27:55;;;;;;;7.65;4.38;;;19.70;34.30;;;;;;5065363;28;20057;-71
2022/12/18 01:30:22;;;;;;;6.00;4.18;;;19.70;34.40;;;;;;5069878;28;20409;-72
2022/12/18 01:32:49;;;;;;;5.22;4.45;;;19.70;34.30;;;;;;5052562;28;20416;-71
2022/12/18 01:35:16;;;;;;;4.93;3.80;;;19.70;34.40;;;;;;5069391;28;20055;-71
2022/12/18 01:37:43;;;;;;;5.97;4.50;;;19.70;34.40;;;;;;5070101;28;20048;-71
2022/12/18 01:40:10;;;;;;;5.13;3.90;;;19.70;34.40;;;;;;5068945;28;20565;-71
2022/12/18 01:42:38;;;;;;;5.70;4.05;;;19.70;34.40;;;;;;5084757;28;20055;-71
2022/12/18 01:45:25;;;;;;;5.35;4.07;;;19.70;34.40;;;;;;5069638;28;20660;-72
2022/12/18 01:48:00;;;;;;;5.03;4.40;;;19.70;34.40;;;;;;5084258;28;20055;-71
2022/12/18 01:50:38;;;;;;;5.40;4.65;;;19.70;34.40;;;;;;5069241;28;20054;-72
2022/12/18 01:53:18;;;;;;;5.85;4.25;;;19.70;34.40;;;;;;5068929;28;20048;-71
2022/12/18 01:55:53;;;;;;;6.07;4.32;;;19.70;34.90;;;;;;5069624;28;20040;-71
2022/12/18 01:58:27;;;;;;;5.78;4.35;;;19.70;34.40;;;;;;5069212;28;20596;-71
2022/12/18 02:00:55;;;;;;;5.75;3.53;;;19.70;34.40;;;;;;5047099;28;20048;-71
2022/12/18 02:03:22;;;;;;;5.05;3.88;;;19.70;34.40;;;;;;5069152;28;20048;-73
2022/12/18 02:06:22;;;;;;;5.45;4.32;;;19.70;34.40;;;;;;5068782;28;20044;-71
2022/12/18 02:09:14;;;;;;;5.20;4.00;;;19.60;34.40;;;;;;5084586;28;20063;-71
2022/12/18 02:12:04;;;;;;;5.78;3.97;;;19.70;34.40;;;;;;5068565;28;20452;-71
2022/12/18 02:15:03;;;;;;;4.70;3.77;;;19.70;34.40;;;;;;5068796;28;20045;-71
2022/12/18 02:17:41;;;;;;;5.10;4.07;;;19.70;34.40;;;;;;5068237;28;20041;-71
2022/12/18 02:20:21;;;;;;;5.35;4.10;;;19.70;34.40;;;;;;5068723;28;20135;-71
2022/12/18 02:23:24;;;;;;;4.88;3.50;;;19.70;34.40;;;;;;5068725;28;20045;-71
2022/12/18 02:26:26;;;;;;;4.63;3.67;;;19.70;34.40;;;;;;5068270;28;20052;-71
2022/12/18 02:29:03;;;;;;;5.68;4.40;;;19.70;34.40;;;;;;5068602;28;20428;-71
2022/12/18 02:31:40;;;;;;;5.03;4.07;;;19.70;34.50;;;;;;5068053;28;20049;-71
2022/12/18 02:34:09;;;;;;;5.40;3.90;;;19.70;34.40;;;;;;5065495;28;20465;-71
2022/12/18 02:36:40;;;;;;;4.75;3.58;;;19.70;34.40;;;;;;5068058;28;20119;-71
2022/12/18 02:39:10;;;;;;;4.65;3.50;;;19.70;34.40;;;;;;5068663;28;20057;-71
2022/12/18 02:41:39;;;;;;;4.50;3.83;;;19.70;34.40;;;;;;5083321;28;20058;-71
2022/12/18 02:44:12;;;;;;;4.72;4.00;;;19.70;34.40;;;;;;5068247;28;20532;-71
2022/12/18 02:46:43;;;;;;;4.45;3.40;;;19.70;34.40;;;;;;5068145;28;20052;-72
2022/12/18 02:49:40;;;;;;;4.50;3.25;;;19.60;34.30;;;;;;5069080;28;20045;-71
2022/12/18 02:52:47;;;;;;;3.90;3.50;;;19.70;34.30;;;;;;5067572;28;20127;-71
2022/12/18 02:55:44;;;;;;;4.38;3.67;;;19.70;34.30;;;;;;5081302;28;20106;-71
2022/12/18 02:58:24;;;;;;;4.95;3.67;;;19.70;34.30;;;;;;5081068;28;20435;-71
2022/12/18 03:01:05;;;;;;;5.15;4.32;;;19.70;34.30;;;;;;5067580;28;20055;-71
2022/12/18 03:03:46;;;;;;;6.03;4.22;;;19.70;34.30;;;;;;5066919;28;20064;-72
2022/12/18 03:06:35;;;;;;;4.35;3.42;;;19.70;34.30;;;;;;5064799;28;20049;-71
2022/12/18 03:09:07;;;;;;;6.05;4.32;;;19.60;34.30;;;;;;5068494;28;20045;-71
2022/12/18 03:14:31;;;;;;;4.93;3.80;;;19.60;34.30;;;;;;5068005;28;20487;-71
2022/12/18 03:17:02;;;;;;;4.32;3.65;;;19.60;34.30;;;;;;5067784;28;20048;-71
2022/12/18 03:19:32;;;;;;;4.78;3.63;;;19.60;34.30;;;;;;5066564;28;20078;-71
2022/12/18 03:22:03;;;;;;;4.43;3.97;;;19.60;34.30;;;;;;5050204;28;20377;-71
2022/12/18 03:24:33;;;;;;;5.25;4.03;;;19.60;34.30;;;;;;5055666;28;20272;-71
2022/12/18 03:27:08;;;;;;;4.28;3.25;;;19.60;34.30;;;;;;5067131;28;20045;-71
2022/12/18 03:29:51;;;;;;;5.00;3.53;;;19.60;34.30;;;;;;5067796;28;20055;-71
2022/12/18 03:32:33;;;;;;;4.68;3.45;;;19.60;34.30;;;;;;5067718;28;20508;-71
2022/12/18 03:35:04;;;;;;;5.07;4.03;;;19.60;34.30;;;;;;5066961;28;20393;-71
2022/12/18 03:37:31;;;;;;;4.38;3.42;;;19.60;34.30;;;;;;5062927;28;20181;-71
2022/12/18 03:39:59;;;;;;;5.07;3.75;;;19.60;34.30;;;;;;5067636;28;20059;-71
2022/12/18 03:42:45;;;;;;;4.47;3.67;;;19.60;34.30;;;;;;5067376;28;20504;-71
2022/12/18 03:45:23;;;;;;;4.78;3.35;;;19.60;34.30;;;;;;5067753;28;20049;-71
2022/12/18 03:48:01;;;;;;;4.90;3.65;;;19.60;34.30;;;;;;5067175;28;20049;-71
2022/12/18 03:50:46;;;;;;;4.38;3.50;;;19.60;34.30;;;;;;5067785;28;20048;-71
2022/12/18 03:53:25;;;;;;;5.63;4.07;;;19.60;34.30;;;;;;5067212;28;20044;-71
2022/12/18 03:55:53;;;;;;;4.30;3.70;;;19.60;34.30;;;;;;5068204;28;20401;-71
2022/12/18 03:58:25;;;;;;;5.35;3.65;;;19.60;34.30;;;;;;5067197;28;20052;-71
2022/12/18 04:00:56;;;;;;;5.22;3.50;;;19.60;34.30;;;;;;5066958;28;20228;-71
2022/12/18 04:03:24;;;;;;;4.57;3.83;;;19.60;34.30;;;;;;5066445;28;20045;-71
2022/12/18 04:05:55;;;;;;;5.13;4.00;;;19.60;34.30;;;;;;5067013;28;20307;-71
2022/12/18 04:08:23;;;;;;;4.95;3.95;;;19.50;34.20;;;;;;5067365;28;20056;-71
2022/12/18 04:10:51;;;;;;;4.53;3.30;;;19.50;34.20;;;;;;5062556;28;20075;-71
2022/12/18 04:13:28;;;;;;;5.82;3.95;;;19.50;34.20;;;;;;5067168;28;20044;-71
2022/12/18 04:15:55;;;;;;;4.90;3.50;;;19.50;34.20;;;;;;5067107;28;20060;-71
2022/12/18 04:18:22;;;;;;;5.05;3.58;;;19.50;34.20;;;;;;5067166;28;20094;-71
2022/12/18 04:20:49;;;;;;;4.43;3.28;;;19.50;34.20;;;;;;5067316;28;20048;-71
2022/12/18 04:23:16;;;;;;;4.68;3.22;;;19.50;34.20;;;;;;5082930;28;20398;-71
2022/12/18 04:25:43;;;;;;;4.78;3.53;;;19.50;34.20;;;;;;5066839;28;20421;-71
2022/12/18 04:28:10;;;;;;;3.58;2.97;;;19.50;34.20;;;;;;5067153;28;20416;-71
2022/12/18 04:30:38;;;;;;;4.20;3.65;;;19.50;34.20;;;;;;5066901;28;20049;-71
2022/12/18 04:33:12;;;;;;;4.45;3.33;;;19.50;34.20;;;;;;5067684;28;20048;-71
2022/12/18 04:35:40;;;;;;;3.88;3.47;;;19.50;34.20;;;;;;5067426;28;20066;-71
2022/12/18 04:38:08;;;;;;;4.20;3.45;;;19.50;34.20;;;;;;5066875;28;20079;-71
2022/12/18 04:40:36;;;;;;;4.93;3.33;;;19.50;34.30;;;;;;5070257;28;20048;-71
2022/12/18 04:43:04;;;;;;;3.83;3.42;;;19.50;34.20;;;;;;5065732;28;20522;-71
2022/12/18 04:45:32;;;;;;;4.43;3.70;;;19.50;34.20;;;;;;5070456;28;20094;-71
2022/12/18 04:48:01;;;;;;;4.85;3.53;;;19.50;34.20;;;;;;5070498;28;20048;-71
2022/12/18 04:50:29;;;;;;;4.97;3.33;;;19.50;34.20;;;;;;5070976;28;20044;-71
2022/12/18 04:52:57;;;;;;;4.65;3.75;;;19.50;34.20;;;;;;5070565;28;20405;-71
2022/12/18 04:55:27;;;;;;;4.57;3.58;;;19.50;34.20;;;;;;5069762;28;20070;-71
2022/12/18 04:57:54;;;;;;;;;;;19.50;34.20;;;;;;5070974;28;20055;-71
2022/12/18 05:00:22;;;;;;;5.70;3.10;;;19.50;34.20;;;;;;5070648;28;19920;-71
2022/12/18 05:02:49;;;;;;;5.55;3.92;;;19.50;34.10;;;;;;5069691;28;20059;-71
2022/12/18 05:05:16;;;;;;;5.28;3.60;;;19.50;34.10;;;;;;5070016;28;20413;-71
2022/12/18 05:07:44;;;;;;;4.57;3.28;;;19.50;34.10;;;;;;5070267;28;20048;-71
2022/12/18 05:10:11;;;;;;;4.43;3.38;;;19.50;34.10;;;;;;5070278;28;20052;-71
2022/12/18 05:15:06;;;;;;;4.57;3.50;;;19.50;34.10;;;;;;5065420;28;20485;-71
2022/12/18 05:17:33;;;;;;;4.57;3.83;;;19.50;34.20;;;;;;5070007;28;20045;-71
2022/12/18 05:22:27;;;;;;;4.75;3.30;;;19.50;34.20;;;;;;5070622;28;20121;-71
2022/12/18 05:24:54;;;;;;;3.55;3.13;;;19.40;34.10;;;;;;5069581;28;20497;-73
2022/12/18 05:27:21;;;;;;;4.50;3.35;;;19.40;34.10;;;;;;5051649;28;20044;-71
2022/12/18 05:29:49;;;;;;;5.57;3.15;;;19.40;34.10;;;;;;5069340;28;20512;-71
2022/12/18 05:32:16;;;;;;;4.82;3.40;;;19.40;34.10;;;;;;5070193;28;20045;-71
2022/12/18 05:34:43;;;;;;;5.25;3.63;;;19.40;34.10;;;;;;5069482;28;20052;-71
2022/12/18 05:37:10;;;;;;;5.97;4.47;;;19.40;34.00;;;;;;5052005;28;20477;-71
2022/12/18 05:39:37;;;;;;;5.70;4.50;;;19.40;33.80;;;;;;5069675;28;20048;-71
2022/12/18 05:42:04;;;;;;;6.90;5.55;;;19.40;33.60;;;;;;5069137;28;20349;-71
2022/12/18 05:44:31;;;;;;;6.68;4.75;;;19.40;33.60;;;;;;5084168;28;20240;-70
2022/12/18 05:46:58;;;;;;;7.03;5.22;;;19.40;33.60;;;;;;5065388;28;20075;-73
2022/12/18 05:49:25;;;;;;;5.60;4.25;;;19.40;33.60;;;;;;5069818;28;20048;-71
2022/12/18 05:51:52;;;;;;;4.63;4.03;;;19.40;33.60;;;;;;5068211;28;20496;-71
2022/12/18 05:54:19;;;;;;;6.30;4.55;;;19.40;34.10;;;;;;5084637;28;20047;-71
2022/12/18 05:56:46;;;;;;;7.53;4.68;;;19.40;33.60;;;;;;5069458;28;20051;-71
2022/12/18 05:59:14;;;;;;;5.90;4.85;;;19.40;33.60;;;;;;5069714;28;20484;-71
2022/12/18 06:01:43;;;;;;;6.88;4.75;;;19.40;33.60;;;;;;5069194;28;20131;-71
2022/12/18 06:04:10;;;;;;;5.95;4.40;;;19.40;33.60;;;;;;5069434;28;20276;-71
2022/12/18 06:06:37;;;;;;;6.57;4.70;;;19.40;33.60;;;;;;5069011;28;20048;-70
2022/12/18 06:09:09;;;;;;;6.35;4.68;;;19.50;33.60;;;;;;5069114;28;20091;-71
2022/12/18 06:11:37;;;;;;;7.53;5.07;;;19.40;33.50;;;;;;5068897;28;20110;-71
2022/12/18 06:14:05;;;;;;;6.00;4.68;;;19.50;33.50;;;;;;5068836;28;20052;-71
2022/12/18 06:16:33;;;;;;;6.55;4.38;;;19.50;33.50;;;;;;5069218;28;20408;-71
2022/12/18 06:19:02;;;;;;;6.80;4.90;;;19.50;34.00;;;;;;5068735;28;20072;-71
2022/12/18 06:21:30;;;;;;;9.27;5.47;;;19.50;33.40;;;;;;5063723;28;20508;-71
2022/12/18 06:23:57;;;;;;;6.72;4.95;;;19.50;33.30;;;;;;5067927;28;20052;-70
2022/12/18 06:26:25;;;;;;;8.13;5.10;;;19.60;33.30;;;;;;5069382;28;20045;-71
2022/12/18 06:28:54;;;;;;;7.07;5.25;;;19.50;33.10;;;;;;5068701;28;20059;-71
2022/12/18 06:31:21;;;;;;;7.20;4.78;;;19.60;33.20;;;;;;5068427;28;20044;-71
2022/12/18 06:33:49;;;;;;;7.45;5.63;;;19.60;33.10;;;;;;5067982;28;20503;-71
2022/12/18 06:36:16;;;;;;;7.78;5.30;;;19.70;33.20;;;;;;5068338;28;20083;-70
2022/12/18 06:38:44;;;;;;;7.50;5.30;;;19.70;33.10;;;;;;5068080;28;20047;-70
2022/12/18 06:41:17;;;;;;;6.78;5.35;;;19.70;33.00;;;;;;5068451;28;20189;-71
2022/12/18 06:43:45;;;;;;;8.35;5.78;;;19.70;33.00;;;;;;5050454;28;20045;-70
2022/12/18 06:46:12;;;;;;;7.22;5.57;;;19.70;32.90;;;;;;5068147;28;20045;-71
2022/12/18 06:48:40;;;;;;;6.32;5.15;;;19.80;32.90;;;;;;5067747;28;20053;-70
2022/12/18 06:51:07;;;;;;;7.70;5.63;;;19.80;33.40;;;;;;5066502;28;20051;-70
2022/12/18 06:53:34;;;;;;;8.07;5.63;;;19.80;32.90;;;;;;5065307;28;20136;-70
2022/12/18 06:56:04;;;;;;;10.90;7.30;;;19.80;32.80;;;;;;5067711;28;20127;-70
2022/12/18 06:58:37;;;;;;;10.98;7.25;;;19.90;32.80;;;;;;5068357;28;20048;-70
2022/12/18 07:01:06;;;;;;;10.65;7.18;;;19.90;32.70;;;;;;5067666;28;20044;-70
2022/12/18 07:03:34;;;;;;;9.32;6.75;;;19.90;32.60;;;;;;5050409;28;20041;-71
2022/12/18 07:06:01;;;;;;;11.13;7.80;;;19.90;32.50;;;;;;5067399;28;20052;-70
2022/12/18 07:08:30;;;;;;;11.73;7.45;;;20.00;32.50;;;;;;5068056;28;20052;-70
2022/12/18 07:10:57;;;;;;;11.45;7.72;;;20.00;32.40;;;;;;5049816;28;20041;-70
2022/12/18 07:13:24;;;;;;;11.75;7.78;;;20.10;32.40;;;;;;5068253;28;20049;-71
2022/12/18 07:15:51;;;;;;;11.60;8.18;;;20.10;32.40;;;;;;5067623;28;20098;-70
2022/12/18 07:18:19;;;;;;;11.40;8.43;;;20.10;32.30;;;;;;5067600;28;20049;-71
2022/12/18 07:20:46;;;;;;;12.13;8.23;;;20.10;32.20;;;;;;5082875;28;20051;-70
2022/12/18 07:23:14;;;;;;;11.57;8.52;;;20.10;32.20;;;;;;5068065;28;20386;-71
2022/12/18 07:25:41;;;;;;;13.80;9.13;;;20.20;32.10;;;;;;5067274;28;20399;-71
2022/12/18 07:28:08;;;;;;;12.13;8.90;;;20.20;32.10;;;;;;5067650;28;20055;-71
2022/12/18 07:30:43;;;;;;;16.60;10.68;;;20.30;32.00;;;;;;5067698;28;20044;-70
2022/12/18 07:33:10;;;;;;;14.25;9.65;;;20.20;31.90;;;;;;5083190;28;20054;-70
2022/12/18 07:35:37;;;;;;;13.55;9.63;;;20.30;32.00;;;;;;5062299;28;20055;-71
2022/12/18 07:38:04;;;;;;;15.32;10.48;;;20.30;31.90;;;;;;5068088;28;20208;-71
2022/12/18 07:40:31;;;;;;;13.63;9.60;;;20.30;31.90;;;;;;5082984;28;20044;-70
2022/12/18 07:42:58;;;;;;;15.93;9.88;;;20.30;31.80;;;;;;5066848;28;20048;-70
2022/12/18 07:45:25;;;;;;;15.25;10.93;;;20.40;31.80;;;;;;5066352;28;20051;-71
2022/12/18 07:47:52;;;;;;;16.45;11.48;;;20.40;31.80;;;;;;5067446;28;20045;-70
2022/12/18 07:50:19;;;;;;;15.68;10.40;;;20.40;31.80;;;;;;5068105;28;20083;-71
2022/12/18 07:52:46;;;;;;;14.68;10.30;;;20.50;31.80;;;;;;5067601;28;20048;-71
2022/12/18 07:55:13;;;;;;;14.45;10.40;;;20.50;31.70;;;;;;5049760;28;20087;-70
2022/12/18 07:57:40;;;;;;;16.95;11.23;;;20.50;31.70;;;;;;5068595;28;20044;-70
2022/12/18 08:00:17;;;;;;;13.75;10.60;;;20.50;31.70;;;;;;5066928;28;20546;-71
2022/12/18 08:06:12;;;;;;;16.73;11.75;;;20.60;31.60;;;;;;5061485;28;20106;-71
2022/12/18 08:08:41;;;;;;;15.60;10.93;;;20.60;31.60;;;;;;5062604;28;20147;-71
2022/12/18 08:11:08;;;;;;;16.38;11.18;;;20.60;31.50;;;;;;5067992;28;20048;-70
2022/12/18 08:13:35;;;;;;;14.02;10.48;;;20.70;31.60;;;;;;5067375;28;20056;-71
2022/12/18 08:16:05;;;;;;;15.65;10.90;;;20.70;31.50;;;;;;5071372;28;20076;-71
2022/12/18 08:18:34;;;;;;;15.90;11.93;;;20.70;31.50;;;;;;5070712;28;20041;-71
2022/12/18 08:21:10;;;;;;;13.70;10.38;;;20.70;31.40;;;;;;5071248;28;20079;-71
2022/12/18 08:23:38;;;;;;;14.80;10.55;;;20.80;31.40;;;;;;5065197;28;20054;-72
2022/12/18 08:26:10;;;;;;;13.82;9.82;;;20.80;31.30;;;;;;5068167;28;20044;-70
2022/12/18 08:28:37;;;;;;;16.08;10.98;;;20.80;31.30;;;;;;5071113;28;20060;-70
2022/12/18 08:31:04;;;;;;;15.45;10.75;;;20.80;31.20;;;;;;5070590;28;20060;-70
2022/12/18 08:33:33;;;;;;;15.50;10.68;;;20.90;31.30;;;;;;5069812;28;20052;-71
2022/12/18 08:36:00;;;;;;;14.23;10.50;;;20.90;31.20;;;;;;5070612;28;20049;-72
2022/12/18 08:38:27;;;;;;;15.55;10.82;;;20.90;31.10;;;;;;5070882;28;20053;-73
2022/12/18 08:41:04;;;;;;;15.13;11.02;;;21.00;31.20;;;;;;5070775;28;20048;-72
2022/12/18 08:46:21;;;;;;;14.00;10.75;;;21.10;31.10;;;;;;5070852;28;20512;-71
2022/12/18 08:48:50;;;;;;;15.02;10.13;;;21.10;31.00;;;;;;5069679;28;20372;-71
2022/12/18 08:51:17;;;;;;;14.65;9.90;;;21.10;30.90;;;;;;5053316;28;20045;-71
2022/12/18 08:53:45;;;;;;;13.85;9.57;;;21.20;31.00;;;;;;5070697;28;20048;-71
2022/12/18 08:56:13;;;;;;;13.50;9.50;;;21.20;30.90;;;;;;5070421;28;20240;-71
2022/12/18 08:58:41;;;;;;;13.02;9.63;;;21.20;30.80;;;;;;5070629;28;20071;-71
2022/12/18 09:01:11;;;;;;;12.63;8.82;;;21.30;30.80;;;;;;5070142;28;20241;-70
2022/12/18 09:03:39;;;;;;;13.13;9.63;;;21.30;30.80;;;;;;5070380;28;20052;-71
2022/12/18 09:06:07;;;;;;;13.77;9.23;;;21.30;30.70;;;;;;5070103;28;20361;-70
2022/12/18 09:08:36;;;;;;;13.48;9.18;;;21.40;30.80;;;;;;5070191;28;20489;-70
2022/12/18 09:11:04;;;;;;;11.02;8.23;;;21.40;30.70;;;;;;5070087;28;20127;-71
2022/12/18 09:13:31;;;;;;;13.32;9.27;;;21.40;30.70;;;;;;5069938;28;20047;-71
2022/12/18 09:15:58;;;;;;;13.38;8.70;;;21.40;30.60;;;;;;5065868;28;20044;-71
2022/12/18 09:18:25;;;;;;;14.43;9.77;;;21.50;30.60;;;;;;5069981;28;20055;-71
2022/12/18 09:20:52;;;;;;;13.32;9.43;;;21.50;30.60;;;;;;5070129;28;20076;-71
2022/12/18 09:23:20;;;;;;;10.50;8.13;;;21.50;30.50;;;;;;5069772;28;20055;-70
2022/12/18 09:25:48;;;;;;;12.15;8.55;;;21.60;30.50;;;;;;5069738;28;20048;-70
2022/12/18 09:28:18;;;;;;;12.10;8.52;;;21.60;30.40;;;;;;5069567;28;20120;-70
2022/12/18 09:30:47;;;;;;;;;;;21.60;30.40;;;;;;5070563;28;20097;-71
2022/12/18 09:33:15;;;;;;;10.13;7.70;;;21.60;30.30;;;;;;5069693;28;20033;-71
2022/12/18 09:35:44;;;;;;;11.70;8.55;;;21.70;30.30;;;;;;5070139;28;20127;-71
2022/12/18 09:38:14;;;;;;;11.73;8.48;;;21.70;30.20;;;;;;5069705;28;20101;-70
2022/12/18 09:40:52;;;;;;;11.93;8.45;;;21.70;30.20;;;;;;5069779;28;20059;-71
2022/12/18 09:43:30;;;;;;;10.55;7.78;;;21.80;30.20;;;;;;5068709;28;20040;-71
2022/12/18 09:46:17;;;;;;;13.93;8.60;;;21.80;30.10;;;;;;5069698;28;20056;-71
2022/12/18 09:48:51;;;;;;;9.75;7.85;;;21.80;30.00;;;;;;5065090;28;20046;-71
2022/12/18 09:51:27;;;;;;;10.65;8.23;;;21.80;30.00;;;;;;5069785;28;20048;-70
2022/12/18 09:54:01;;;;;;;11.63;8.00;;;21.90;30.00;;;;;;5069330;28;20040;-71
2022/12/18 09:56:40;;;;;;;11.23;7.13;;;21.90;30.10;;;;;;5069107;28;20048;-71
2022/12/18 09:59:19;;;;;;;10.88;7.28;;;21.90;30.00;;;;;;5069310;28;20345;-71
2022/12/18 10:01:46;;;;;;;8.80;7.07;;;21.90;30.00;;;;;;5069499;28;20048;-71
2022/12/18 10:04:13;;;;;;;11.45;8.35;;;21.90;30.00;;;;;;5069033;28;20492;-71
2022/12/18 10:07:01;;;;;;;9.55;7.63;;;22.00;30.00;;;;;;5068770;28;20052;-71
2022/12/18 10:10:00;;;;;;;10.32;7.25;;;22.00;30.00;;;;;;5069344;28;20535;-70
2022/12/18 10:12:38;;;;;;;9.48;7.20;;;22.00;30.00;;;;;;5051205;28;20520;-70
2022/12/18 10:15:36;;;;;;;10.02;7.28;;;22.00;30.00;;;;;;5068854;28;20504;-70
2022/12/18 10:18:34;;;;;;;11.13;7.47;;;22.00;30.00;;;;;;5080178;28;20052;-70
2022/12/18 10:21:13;;;;;;;9.52;6.90;;;22.00;30.00;;;;;;5068841;28;20504;-70
2022/12/18 10:24:04;;;;;;;10.50;7.03;;;22.00;30.00;;;;;;5064079;28;20048;-70
2022/12/18 10:26:32;;;;;;;9.82;6.82;;;22.00;30.00;;;;;;5069205;28;20052;-70
2022/12/18 10:29:00;;;;;;;9.38;7.07;;;22.10;30.00;;;;;;5068594;28;20052;-70
2022/12/18 10:31:31;;;;;;;9.38;6.93;;;22.10;30.00;;;;;;5067665;28;20493;-70
2022/12/18 10:33:58;;;;;;;8.25;6.50;;;22.10;30.00;;;;;;5069103;28;20059;-70
2022/12/18 10:36:25;;;;;;;8.05;6.63;;;22.10;30.00;;;;;;5068377;28;20044;-70
2022/12/18 10:38:52;;;;;;;8.77;6.50;;;22.10;30.00;;;;;;5067732;28;20055;-70
2022/12/18 10:41:26;;;;;;;7.28;5.93;;;22.20;30.00;;;;;;5068567;28;20492;-70
2022/12/18 10:44:17;;;;;;;8.45;6.80;;;22.10;29.90;;;;;;5068285;28;20060;-70
2022/12/18 10:46:46;;;;;;;8.60;6.43;;;22.20;29.90;;;;;;5068497;28;20283;-70
2022/12/18 10:49:25;;;;;;;7.07;6.03;;;22.20;29.90;;;;;;5067793;28;20049;-70
2022/12/18 10:52:15;;;;;;;8.05;6.13;;;22.20;29.90;;;;;;5068414;28;20048;-70
2022/12/18 10:54:58;;;;;;;8.43;6.28;;;22.20;29.90;;;;;;5066006;28;20497;-70
2022/12/18 10:57:41;;;;;;;8.77;6.13;;;22.30;29.90;;;;;;5066097;28;20365;-69
2022/12/18 11:00:30;;;;;;;9.10;6.53;;;22.30;29.90;;;;;;5051496;28;20045;-70
2022/12/18 11:02:57;;;;;;;8.35;6.50;;;22.20;29.80;;;;;;5068126;28;20219;-70
2022/12/18 11:05:30;;;;;;;8.80;6.20;;;22.30;29.80;;;;;;5068340;28;20052;-70
2022/12/18 11:07:59;;;;;;;7.35;5.80;;;22.30;29.80;;;;;;5067456;28;20048;-70
2022/12/18 11:10:37;;;;;;;7.53;5.30;;;22.30;29.80;;;;;;5050420;28;20179;-70
2022/12/18 11:13:20;;;;;;;10.20;6.68;;;22.40;29.80;;;;;;5067617;28;20048;-70
2022/12/18 11:15:47;;;;;;;7.22;5.00;;;22.30;29.80;;;;;;5068233;28;20041;-70
2022/12/18 11:18:34;;;;;;;10.63;6.03;;;22.40;29.70;;;;;;5068076;28;20040;-70
2022/12/18 11:21:08;;;;;;;7.93;5.78;;;22.40;29.70;;;;;;5067690;28;20054;-70
2022/12/18 11:23:37;;;;;;;7.82;6.03;;;22.40;29.70;;;;;;5068152;28;20040;-70
2022/12/18 11:26:05;;;;;;;7.35;5.63;;;22.40;29.70;;;;;;5066656;28;20068;-70
2022/12/18 11:28:48;;;;;;;10.07;5.75;;;22.40;29.70;;;;;;5061563;28;20481;-70
2022/12/18 11:31:25;;;;;;;7.13;5.35;;;22.40;29.70;;;;;;5067455;28;20144;-70
2022/12/18 11:34:00;;;;;;;7.45;5.72;;;22.50;29.70;;;;;;5068106;28;20080;-70
2022/12/18 11:36:48;;;;;;;8.18;5.78;;;22.50;29.60;;;;;;5066944;28;20401;-69
2022/12/18 11:39:31;;;;;;;6.97;5.43;;;22.50;29.60;;;;;;5067570;28;20056;-70
2022/12/18 11:42:14;;;;;;;6.25;5.00;;;22.50;29.60;;;;;;5067609;28;20049;-70
2022/12/18 11:44:50;;;;;;;6.32;5.25;;;22.50;29.60;;;;;;5067342;28;20060;-70
2022/12/18 11:47:41;;;;;;;7.80;5.97;;;22.50;29.50;;;;;;5067557;28;20047;-70
2022/12/18 11:50:18;;;;;;;6.15;5.00;;;22.50;29.50;;;;;;5070229;28;20433;-70
2022/12/18 11:52:46;;;;;;;6.85;5.65;;;22.50;29.50;;;;;;5071815;28;20044;-70
2022/12/18 11:55:39;;;;;;;6.40;5.25;;;22.50;29.40;;;;;;5071388;28;20044;-70
2022/12/18 11:58:19;;;;;;;6.88;5.72;;;22.60;29.40;;;;;;5053692;28;20500;-70
2022/12/18 12:01:08;;;;;;;7.82;5.63;;;22.60;29.40;;;;;;5049453;28;20049;-69
2022/12/18 12:03:54;;;;;;;6.38;4.68;;;22.50;29.40;;;;;;5071432;28;20404;-70
2022/12/18 12:06:52;;;;;;;6.38;4.88;;;22.60;29.40;;;;;;5071055;28;20076;-70
2022/12/18 12:10:00;;;;;;;5.82;5.07;;;22.60;29.50;;;;;;5072001;28;20098;-70
2022/12/18 12:12:51;;;;;;;7.55;5.15;;;22.60;29.40;;;;;;5071208;28;20485;-70
2022/12/18 12:15:54;;;;;;;5.78;4.75;;;22.60;29.40;;;;;;5071368;28;20048;-70
2022/12/18 12:18:34;;;;;;;6.38;4.88;;;22.50;29.30;;;;;;5070610;28;20048;-70
2022/12/18 12:21:18;;;;;;;5.85;4.88;;;22.60;29.40;;;;;;5071143;28;20048;-72
2022/12/18 12:24:24;;;;;;;7.90;5.55;;;22.60;29.30;;;;;;5071080;28;20037;-70
2022/12/18 12:27:27;;;;;;;7.07;4.90;;;22.60;29.30;;;;;;5071120;28;20048;-69
2022/12/18 12:30:18;;;;;;;6.45;5.10;;;22.60;29.40;;;;;;5070286;28;20128;-70
2022/12/18 12:33:14;;;;;;;5.93;4.68;;;22.60;29.30;;;;;;5067208;28;20063;-69
2022/12/18 12:36:03;;;;;;;6.50;4.78;;;22.60;29.30;;;;;;5071144;28;20066;-70
2022/12/18 12:38:42;;;;;;;6.32;4.55;;;22.60;29.30;;;;;;5069500;28;20051;-70
2022/12/18 12:44:19;;;;;;;6.40;4.97;;;22.60;29.30;;;;;;5050200;28;20477;-70
2022/12/18 12:46:47;;;;;;;5.68;4.47;;;22.60;29.30;;;;;;5050981;28;20053;-70
2022/12/18 12:49:18;;;;;;;7.40;4.78;;;22.60;29.30;;;;;;5050825;28;20045;-70
2022/12/18 12:52:05;;;;;;;;;;;22.60;29.30;;;;;;5051568;28;20051;-70
2022/12/18 12:54:33;;;;;;;5.45;4.75;;;22.60;29.30;;;;;;5058272;28;19974;-70
2022/12/18 12:57:30;;;;;;;5.18;4.03;;;22.60;29.20;;;;;;5070815;28;20063;-70
2022/12/18 13:00:19;;;;;;;6.07;4.28;;;22.60;29.30;;;;;;5069858;28;20048;-70
2022/12/18 13:03:13;;;;;;;6.25;4.50;;;22.60;29.30;;;;;;5069550;28;20048;-70
2022/12/18 13:06:03;;;;;;;5.85;4.60;;;22.60;29.20;;;;;;5081472;28;20048;-70
2022/12/18 13:08:51;;;;;;;6.32;4.70;;;22.60;29.30;;;;;;5053468;28;20131;-70
2022/12/18 13:14:34;;;;;;;6.95;5.05;;;22.60;29.20;;;;;;5082754;28;20049;-70
2022/12/18 13:17:27;;;;;;;5.32;4.47;;;22.60;29.20;;;;;;5070247;28;20514;-70
2022/12/18 13:20:09;;;;;;;6.30;4.25;;;22.60;29.20;;;;;;5085501;28;20072;-70
2022/12/18 13:22:41;;;;;;;5.72;4.68;;;22.60;29.20;;;;;;5070047;28;20090;-70
2022/12/18 13:25:30;;;;;;;6.57;5.30;;;22.60;29.30;;;;;;5051759;28;20128;-69
2022/12/18 13:28:13;;;;;;;5.43;4.65;;;22.60;29.20;;;;;;5069796;28;20045;-70
2022/12/18 13:30:49;;;;;;;5.97;4.63;;;22.60;29.20;;;;;;5070309;28;20351;-70
2022/12/18 13:33:41;;;;;;;6.63;4.47;;;22.60;29.20;;;;;;5069628;28;20040;-70
2022/12/18 13:36:31;;;;;;;6.00;4.60;;;22.60;29.20;;;;;;5079329;28;20037;-70
2022/12/18 13:39:18;;;;;;;;;;;22.50;29.20;;;;;;5068400;28;20094;-69